Time;durP1;ratioP1;P1;durP2;ratioP2;P2;SDS_P1;SDS_P2;PMS_P1;PMS_P2;Temp;Humidity;BMP_temperature;BMP_pressure;BME280_temperature;BME280_humidity;BME280_pressure;Samples;Min_cycle;Max_cycle;Signal;HPM_P1;HPM_P2
2021/12/13 00:01:33;;;;;;;;;;;8.50;99.90;;;;;;5054480;28;19947;-52
2021/12/13 00:04:06;;;;;;;;;;;8.50;99.90;;;;;;5053545;28;19919;-56
2021/12/13 00:06:34;;;;;;;;;;;8.50;99.90;;;;;;5054317;28;19911;-56
2021/12/13 00:09:03;;;;;;;;;;;8.50;99.90;;;;;;5053599;28;19912;-54
2021/12/13 00:11:32;;;;;;;;;;;8.50;99.90;;;;;;5071805;28;20338;-54
2021/12/13 00:14:00;;;;;;;;;;;8.50;99.90;;;;;;5056535;28;19908;-55
2021/12/13 00:16:27;;;;;;;;;;;8.50;99.90;;;;;;5073803;28;19909;-56
2021/12/13 00:18:58;;;;;;;;;;;8.50;99.90;;;;;;5055509;28;19916;-55
2021/12/13 00:21:28;;;;;;;;;;;8.50;99.90;;;;;;5072704;28;19912;-54
2021/12/13 00:23:56;;;;;;;;;;;8.50;99.90;;;;;;5054617;28;20006;-55
2021/12/13 00:26:25;;;;;;;;;;;8.50;99.90;;;;;;5072105;28;19905;-55
2021/12/13 00:28:58;;;;;;;;;;;8.50;99.90;;;;;;5054620;28;19908;-50
2021/12/13 00:31:28;;;;;;;;;;;8.50;99.90;;;;;;5055874;28;19912;-55
2021/12/13 00:33:57;;;;;;;;;;;8.50;99.90;;;;;;5057291;28;19908;-57
2021/12/13 00:36:29;;;;;;;;;;;8.50;99.90;;;;;;5075110;28;19915;-55
2021/12/13 00:38:59;;;;;;;;;;;8.50;99.90;;;;;;5056550;28;19954;-57
2021/12/13 00:41:27;;;;;;;;;;;8.50;99.90;;;;;;5056396;28;19910;-56
2021/12/13 00:44:04;;;;;;;;;;;8.50;99.90;;;;;;5057508;28;20350;-56
2021/12/13 00:46:30;;;;;;;;;;;8.50;99.90;;;;;;5074386;28;19912;-56
2021/12/13 00:48:57;;;;;;;;;;;8.50;99.90;;;;;;5072506;28;19908;-53
2021/12/13 00:51:28;;;;;;;;;;;8.50;99.90;;;;;;5055281;28;20311;-52
2021/12/13 00:53:58;;;;;;;;;;;8.50;99.90;;;;;;5055785;28;19954;-52
2021/12/13 00:56:42;;;;;;;;;;;8.50;99.90;;;;;;5056159;28;19908;-54
2021/12/13 00:59:08;;;;;;;;;;;8.50;99.90;;;;;;5055223;28;19905;-50
2021/12/13 01:01:35;;;;;;;;;;;8.50;99.90;;;;;;5054569;28;19908;-56
2021/12/13 01:04:03;;;;;;;;;;;8.50;99.90;;;;;;5072262;28;19932;-52
2021/12/13 01:06:47;;;;;;;;;;;8.60;99.90;;;;;;5071332;28;19914;-57
2021/12/13 01:09:32;;;;;;;;;;;8.60;99.90;;;;;;5053590;28;20198;-57
2021/12/13 01:11:59;;;;;;;;;;;8.60;99.90;;;;;;5070141;28;20062;-57
2021/12/13 01:14:27;;;;;;;;;;;8.60;99.90;;;;;;5053180;28;19904;-57
2021/12/13 01:17:06;;;;;;;;;;;8.60;99.90;;;;;;5055829;28;20007;-57
2021/12/13 01:19:58;;;;;;;;;;;8.60;99.90;;;;;;5056018;28;19909;-57
2021/12/13 01:22:42;;;;;;;;;;;8.70;99.90;;;;;;5072043;28;20226;-57
2021/12/13 01:25:21;;;;;;;;;;;8.60;99.90;;;;;;5056280;28;19904;-57
2021/12/13 01:27:49;;;;;;;;;;;8.70;99.90;;;;;;5058252;28;19915;-57
2021/12/13 01:30:20;;;;;;;;;;;8.70;99.90;;;;;;5058544;28;19962;-55
2021/12/13 01:32:47;;;;;;;;;;;8.70;99.90;;;;;;5059455;28;19916;-54
2021/12/13 01:35:18;;;;;;;;;;;8.80;99.90;;;;;;5061374;28;19995;-54
2021/12/13 01:37:53;;;;;;;;;;;8.80;99.90;;;;;;5059467;28;19911;-57
2021/12/13 01:40:21;;;;;;;;;;;8.80;99.90;;;;;;5076704;28;19908;-56
2021/12/13 01:42:53;;;;;;;;;;;8.80;99.90;;;;;;5057800;28;19915;-57
2021/12/13 01:45:18;;;;;;;;;;;8.80;99.90;;;;;;5059914;28;19999;-57
2021/12/13 01:47:46;;;;;;;;;;;8.80;99.90;;;;;;5053404;28;20143;-52
2021/12/13 01:50:16;;;;;;;;;;;8.80;99.90;;;;;;5055176;28;19950;-56
2021/12/13 01:52:42;;;;;;;;;;;8.80;99.90;;;;;;5058028;28;19916;-54
2021/12/13 01:55:14;;;;;;;;;;;8.90;99.90;;;;;;5057283;28;19905;-53
2021/12/13 01:57:47;;;;;;;;;;;8.90;99.90;;;;;;5057298;28;19999;-57
2021/12/13 02:00:33;;;;;;;;;;;8.90;99.90;;;;;;5057388;28;19913;-55
2021/12/13 02:02:59;;;;;;;;;;;8.90;99.90;;;;;;5056128;28;19940;-57
2021/12/13 02:05:30;;;;;;;;;;;8.90;99.90;;;;;;5057489;28;19904;-56
2021/12/13 02:08:03;;;;;;;;;;;8.90;99.90;;;;;;5057096;28;19909;-55
2021/12/13 02:10:48;;;;;;;;;;;8.90;99.90;;;;;;5057190;28;19927;-55
2021/12/13 02:13:17;;;;;;;;;;;9.00;99.90;;;;;;5057185;28;19904;-55
2021/12/13 02:18:31;;;;;;;;;;;9.00;99.90;;;;;;5057873;28;19971;-55
2021/12/13 02:21:04;;;;;;;;;;;9.00;99.90;;;;;;5056026;28;20257;-54
2021/12/13 02:23:30;;;;;;;;;;;9.00;99.90;;;;;;5056501;28;20003;-57
2021/12/13 02:25:57;;;;;;;;;;;9.00;99.90;;;;;;5056777;28;19912;-57
2021/12/13 02:28:25;;;;;;;;;;;9.00;99.90;;;;;;5058332;28;19919;-57
2021/12/13 02:31:00;;;;;;;;;;;9.00;99.90;;;;;;5056925;28;20251;-56
2021/12/13 02:33:34;;;;;;;;;;;9.10;99.90;;;;;;5056173;28;20286;-56
2021/12/13 02:36:03;;;;;;;;;;;9.10;99.90;;;;;;5054689;28;19983;-57
2021/12/13 02:38:29;;;;;;;;;;;9.10;99.90;;;;;;5055520;28;20284;-53
2021/12/13 02:40:55;;;;;;;;;;;9.10;99.90;;;;;;5056074;28;19905;-55
2021/12/13 02:43:25;;;;;;;;;;;9.10;99.90;;;;;;5056285;28;19967;-56
2021/12/13 02:45:52;;;;;;;;;;;9.10;99.90;;;;;;5053910;28;19970;-57
2021/12/13 02:48:19;;;;;;;;;;;9.10;99.90;;;;;;5055457;28;19927;-56
2021/12/13 02:50:48;;;;;;;;;;;9.10;99.90;;;;;;5037781;28;20457;-56
2021/12/13 02:53:15;;;;;;;;;;;9.10;99.90;;;;;;5038456;28;20124;-56
2021/12/13 02:55:41;;;;;;;;;;;9.10;99.90;;;;;;5037642;28;19973;-57
2021/12/13 02:58:09;;;;;;;;;;;9.10;99.90;;;;;;5056801;28;19912;-57
2021/12/13 03:00:37;;;;;;;;;;;9.10;99.90;;;;;;5057330;28;20340;-54
2021/12/13 03:03:06;;;;;;;;;;;9.10;99.90;;;;;;5056835;28;19908;-57
2021/12/13 03:05:34;;;;;;;;;;;9.10;99.90;;;;;;5057392;28;19904;-54
2021/12/13 03:08:06;;;;;;;;;;;9.20;99.90;;;;;;5038327;28;19970;-55
2021/12/13 03:10:34;;;;;;;;;;;9.10;99.90;;;;;;5037645;28;20142;-54
2021/12/13 03:13:00;;;;;;;;;;;9.20;99.90;;;;;;5057034;28;19905;-55
2021/12/13 03:15:27;;;;;;;;;;;9.20;99.90;;;;;;5041433;28;19916;-57
2021/12/13 03:17:55;;;;;;;;;;;9.20;99.90;;;;;;5056007;28;19909;-53
2021/12/13 03:20:28;;;;;;;;;;;9.20;99.90;;;;;;5038886;28;19909;-57
2021/12/13 03:22:59;;;;;;;;;;;9.20;99.90;;;;;;5057182;28;19905;-52
2021/12/13 03:25:50;;;;;;;;;;;9.20;99.90;;;;;;5057487;28;19913;-55
2021/12/13 03:28:30;;;;;;;;;;;9.20;99.90;;;;;;5039900;28;20273;-56
2021/12/13 03:31:14;;;;;;;;;;;9.20;99.90;;;;;;5038478;28;20315;-53
2021/12/13 03:34:00;;;;;;;;;;;9.20;99.90;;;;;;5056347;28;19971;-55
2021/12/13 03:36:49;;;;;;;;;;;9.20;99.90;;;;;;5039572;28;19905;-56
2021/12/13 03:39:35;;;;;;;;;;;9.30;99.90;;;;;;5032073;28;20273;-56
2021/12/13 03:42:03;;;;;;;;;;;9.30;99.90;;;;;;5038169;28;19951;-55
2021/12/13 03:44:31;;;;;;;;;;;9.30;99.90;;;;;;5039597;28;19913;-54
2021/12/13 03:46:59;;;;;;;;;;;9.30;99.90;;;;;;5048171;28;20037;-54
2021/12/13 03:49:25;;;;;;;;;;;9.30;99.90;;;;;;5055803;28;19953;-55
2021/12/13 03:51:53;;;;;;;;;;;9.30;99.90;;;;;;5055252;28;19904;-54
2021/12/13 03:54:19;;;;;;;;;;;9.30;99.90;;;;;;5053891;28;20013;-56
2021/12/13 03:56:48;;;;;;;;;;;9.30;99.90;;;;;;5054889;28;19966;-56
2021/12/13 03:59:19;;;;;;;;;;;9.30;99.90;;;;;;5056197;28;19924;-57
2021/12/13 04:01:46;;;;;;;;;;;9.30;99.90;;;;;;5054615;28;19916;-51
2021/12/13 04:04:15;;;;;;;;;;;9.30;99.90;;;;;;5053532;28;19927;-55
2021/12/13 04:06:44;;;;;;;;;;;9.40;99.90;;;;;;5055502;28;19904;-53
2021/12/13 04:09:11;;;;;;;;;;;9.40;99.90;;;;;;5056061;28;19909;-57
2021/12/13 04:11:40;;;;;;;;;;;9.40;99.90;;;;;;5056155;28;20003;-55
2021/12/13 04:14:11;;;;;;;;;;;9.40;99.90;;;;;;5056264;28;19982;-55
2021/12/13 04:17:01;;;;;;;;;;;9.40;99.90;;;;;;5056468;28;20288;-57
2021/12/13 04:19:32;;;;;;;;;;;9.40;99.90;;;;;;5056702;28;19920;-57
2021/12/13 04:21:59;;;;;;;;;;;9.40;99.90;;;;;;5054711;28;19947;-53
2021/12/13 04:24:30;;;;;;;;;;;9.40;99.90;;;;;;5052002;28;19912;-54
2021/12/13 04:26:58;;;;;;;;;;;9.50;99.90;;;;;;5054287;28;19923;-55
2021/12/13 04:29:26;;;;;;;;;;;9.40;99.90;;;;;;5053278;28;19936;-53
2021/12/13 04:31:52;;;;;;;;;;;9.50;99.90;;;;;;5052372;28;20205;-51
2021/12/13 04:34:20;;;;;;;;;;;9.50;99.90;;;;;;5054002;28;19905;-55
2021/12/13 04:36:48;;;;;;;;;;;9.50;99.90;;;;;;5053610;28;20297;-56
2021/12/13 04:39:29;;;;;;;;;;;9.50;99.90;;;;;;5053415;28;20012;-56
2021/12/13 04:41:56;;;;;;;;;;;9.50;99.90;;;;;;5055222;28;19981;-57
2021/12/13 04:44:26;;;;;;;;;;;9.50;99.90;;;;;;5056151;28;19904;-56
2021/12/13 04:46:53;;;;;;;;;;;9.60;99.90;;;;;;5055170;28;20360;-57
2021/12/13 04:49:20;;;;;;;;;;;9.60;99.90;;;;;;5056034;28;19944;-57
2021/12/13 04:51:54;;;;;;;;;;;9.60;99.90;;;;;;5055028;28;19904;-57
2021/12/13 04:54:21;;;;;;;;;;;9.60;99.90;;;;;;5053767;28;19911;-57
2021/12/13 04:56:49;;;;;;;;;;;9.60;99.90;;;;;;5053546;28;19924;-57
2021/12/13 04:59:15;;;;;;;;;;;9.60;99.90;;;;;;5055890;28;19905;-57
2021/12/13 05:01:43;;;;;;;;;;;9.60;99.90;;;;;;5053158;28;19927;-53
2021/12/13 05:04:10;;;;;;;;;;;9.60;99.90;;;;;;5070262;28;19913;-54
2021/12/13 05:06:38;;;;;;;;;;;9.60;99.90;;;;;;5077746;28;19905;-57
2021/12/13 05:09:07;;;;;;;;;;;9.60;99.90;;;;;;5078788;28;19908;-54
2021/12/13 05:11:38;;;;;;;;;;;9.60;99.90;;;;;;5062412;28;19991;-56
2021/12/13 05:14:08;;;;;;;;;;;9.60;99.90;;;;;;5061916;28;20249;-52
2021/12/13 05:16:44;;;;;;;;;;;9.60;99.90;;;;;;5078049;28;19977;-54
2021/12/13 05:19:12;;;;;;;;;;;9.60;99.90;;;;;;5076524;28;19912;-57
2021/12/13 05:21:44;;;;;;;;;;;9.60;99.90;;;;;;5061443;28;20409;-53
2021/12/13 05:24:15;;;;;;;;;;;9.60;99.90;;;;;;5076170;28;19915;-53
2021/12/13 05:26:49;;;;;;;;;;;9.70;99.90;;;;;;5059452;28;20286;-55
2021/12/13 05:29:27;;;;;;;;;;;9.70;99.90;;;;;;5079574;28;19904;-53
2021/12/13 05:31:57;;;;;;;;;;;9.70;99.90;;;;;;5078819;28;19969;-56
2021/12/13 05:34:44;;;;;;;;;;;9.70;99.90;;;;;;5078899;28;19913;-56
2021/12/13 05:37:09;;;;;;;;;;;9.70;99.90;;;;;;5077003;28;19912;-56
2021/12/13 05:39:36;;;;;;;;;;;9.70;99.90;;;;;;5074858;28;19905;-55
2021/12/13 05:42:10;;;;;;;;;;;9.70;99.90;;;;;;5073838;28;19974;-53
2021/12/13 05:44:41;;;;;;;;;;;9.70;99.90;;;;;;5073464;28;19940;-55
2021/12/13 05:47:15;;;;;;;;;;;9.70;99.90;;;;;;5073564;28;19977;-54
2021/12/13 05:49:43;;;;;;;;;;;9.70;99.90;;;;;;5073083;28;19973;-56
2021/12/13 05:52:10;;;;;;;;;;;9.70;99.90;;;;;;5071074;28;19904;-54
2021/12/13 05:54:41;;;;;;;;;;;9.70;99.90;;;;;;5070895;28;19905;-57
2021/12/13 05:57:06;;;;;;;;;;;9.80;99.90;;;;;;5070237;28;19912;-56
2021/12/13 05:59:34;;;;;;;;;;;9.80;99.90;;;;;;5070881;28;19970;-57
2021/12/13 06:02:11;;;;;;;;;;;9.80;99.90;;;;;;5070294;28;19908;-54
2021/12/13 06:04:39;;;;;;;;;;;9.80;99.90;;;;;;5071836;28;19904;-57
2021/12/13 06:07:12;;;;;;;;;;;9.80;99.90;;;;;;5069265;28;19919;-55
2021/12/13 06:09:41;;;;;;;;;;;9.80;99.90;;;;;;5069516;28;19905;-57
2021/12/13 06:12:08;;;;;;;;;;;9.80;99.90;;;;;;5070331;28;20389;-57
2021/12/13 06:14:34;;;;;;;;;;;9.80;99.90;;;;;;5069285;28;20165;-55
2021/12/13 06:17:06;;;;;;;;;;;9.80;99.90;;;;;;5067754;28;20275;-54
2021/12/13 06:19:40;;;;;;;;;;;9.90;99.90;;;;;;5067626;28;19912;-54
2021/12/13 06:22:09;;;;;;;;;;;9.80;99.90;;;;;;5067147;28;20023;-54
2021/12/13 06:24:38;;;;;;;;;;;9.90;99.90;;;;;;5066902;28;20245;-53
2021/12/13 06:27:06;;;;;;;;;;;9.90;99.90;;;;;;5068510;28;19916;-53
2021/12/13 06:29:53;;;;;;;;;;;9.90;99.90;;;;;;5071011;28;19904;-55
2021/12/13 06:32:27;;;;;;;;;;;9.90;99.90;;;;;;5070768;28;19935;-54
2021/12/13 06:34:52;;;;;;;;;;;9.90;99.90;;;;;;5070617;28;19904;-57
2021/12/13 06:37:34;;;;;;;;;;;9.90;99.90;;;;;;5070009;28;19908;-57
2021/12/13 06:40:10;;;;;;;;;;;9.90;99.90;;;;;;5069399;28;19999;-53
2021/12/13 06:42:35;;;;;;;;;;;9.90;99.90;;;;;;5067291;28;19909;-56
2021/12/13 06:45:01;;;;;;;;;;;9.90;99.90;;;;;;5066961;28;19908;-54
2021/12/13 06:47:26;;;;;;;;;;;9.90;99.90;;;;;;5067534;28;20194;-57
2021/12/13 06:49:57;;;;;;;;;;;9.90;99.90;;;;;;5066700;28;19915;-56
2021/12/13 06:52:27;;;;;;;;;;;10.00;99.90;;;;;;5067349;28;19905;-57
2021/12/13 06:54:56;;;;;;;;;;;10.00;99.90;;;;;;5066242;28;19904;-56
2021/12/13 06:57:23;;;;;;;;;;;9.90;99.90;;;;;;5064568;28;20235;-54
2021/12/13 06:59:55;;;;;;;;;;;10.00;99.90;;;;;;5065666;28;19944;-57
2021/12/13 07:02:22;;;;;;;;;;;10.00;99.90;;;;;;5064807;28;19904;-57
2021/12/13 07:05:05;;;;;;;;;;;10.00;99.90;;;;;;5065561;28;19912;-56
2021/12/13 07:07:33;;;;;;;;;;;10.00;99.90;;;;;;5062566;28;20510;-55
2021/12/13 07:10:00;;;;;;;;;;;10.00;99.90;;;;;;5062217;28;20122;-55
2021/12/13 07:12:28;;;;;;;;;;;10.00;99.90;;;;;;5060340;28;19912;-57
2021/12/13 07:14:54;;;;;;;;;;;10.00;99.90;;;;;;5060358;28;19908;-54
2021/12/13 07:17:31;;;;;;;;;;;10.00;99.90;;;;;;5058195;28;19936;-55
2021/12/13 07:19:57;;;;;;;;;;;10.00;99.90;;;;;;5059474;28;19904;-56
2021/12/13 07:22:27;;;;;;;;;;;10.00;99.90;;;;;;5060059;28;19912;-54
2021/12/13 07:25:00;;;;;;;;;;;10.00;99.90;;;;;;5061431;28;19939;-57
2021/12/13 07:27:31;;;;;;;;;;;10.00;99.90;;;;;;5057392;28;20283;-54
2021/12/13 07:30:04;;;;;;;;;;;10.00;99.90;;;;;;5059865;28;20269;-55
2021/12/13 07:32:30;;;;;;;;;;;10.00;99.90;;;;;;5060638;28;19914;-56
2021/12/13 07:35:05;;;;;;;;;;;10.00;99.90;;;;;;5062306;28;19954;-54
2021/12/13 07:37:46;;;;;;;;;;;10.00;99.90;;;;;;5067469;28;19904;-56
2021/12/13 07:40:17;;;;;;;;;;;10.00;99.90;;;;;;5064262;28;20400;-55
2021/12/13 07:43:01;;;;;;;;;;;10.00;99.90;;;;;;5065083;28;19920;-55
2021/12/13 07:45:32;;;;;;;;;;;10.00;99.90;;;;;;5066507;28;19947;-54
2021/12/13 07:47:58;;;;;;;;;;;10.00;99.90;;;;;;5066854;28;19916;-55
2021/12/13 07:50:25;;;;;;;;;;;10.00;99.90;;;;;;5066151;28;20498;-56
2021/12/13 07:52:56;;;;;;;;;;;10.00;99.90;;;;;;5066230;28;19911;-56
2021/12/13 07:55:23;;;;;;;;;;;10.00;99.90;;;;;;5084018;28;19904;-55
2021/12/13 07:57:49;;;;;;;;;;;10.00;99.90;;;;;;5085293;28;19904;-55
2021/12/13 08:00:17;;;;;;;;;;;10.00;99.90;;;;;;5070016;28;19908;-55
2021/12/13 08:02:53;;;;;;;;;;;10.00;99.90;;;;;;5069036;28;19904;-56
2021/12/13 08:05:21;;;;;;;;;;;10.00;99.90;;;;;;5070827;28;19903;-55
2021/12/13 08:07:49;;;;;;;;;;;10.00;99.90;;;;;;5069341;28;20184;-56
2021/12/13 08:10:26;;;;;;;;;;;10.00;99.90;;;;;;5066193;28;19904;-57
2021/12/13 08:12:56;;;;;;;;;;;10.00;99.90;;;;;;5083964;28;19974;-57
2021/12/13 08:15:24;;;;;;;;;;;10.00;99.90;;;;;;5064949;28;20248;-53
2021/12/13 08:17:52;;;;;;;;;;;10.00;99.90;;;;;;5065439;28;19911;-56
2021/12/13 08:20:20;;;;;;;;;;;10.00;99.90;;;;;;5084665;28;19904;-56
2021/12/13 08:22:47;;;;;;;;;;;10.00;99.90;;;;;;5064342;28;19904;-54
2021/12/13 08:25:18;;;;;;;;;;;10.00;99.90;;;;;;5062874;28;19904;-54
2021/12/13 08:27:49;;;;;;;;;;;10.00;99.90;;;;;;5063051;28;20010;-57
2021/12/13 08:30:17;;;;;;;;;;;10.00;99.90;;;;;;5065058;28;20013;-55
2021/12/13 08:33:01;;;;;;;;;;;10.00;99.90;;;;;;5065670;28;19904;-57
2021/12/13 08:35:26;;;;;;;;;;;10.00;99.90;;;;;;5067701;28;20036;-57
2021/12/13 08:37:56;;;;;;;;;;;10.10;99.90;;;;;;5067922;28;19912;-57
2021/12/13 08:40:26;;;;;;;;;;;10.00;99.90;;;;;;5067688;28;19947;-55
2021/12/13 08:42:53;;;;;;;;;;;10.10;99.90;;;;;;5069416;28;20002;-57
2021/12/13 08:45:22;;;;;;;;;;;10.10;99.90;;;;;;5067604;28;19997;-55
2021/12/13 08:47:52;;;;;;;;;;;10.10;99.90;;;;;;5072124;28;19916;-55
2021/12/13 08:50:45;;;;;;;;;;;10.10;99.90;;;;;;5055449;28;19908;-56
2021/12/13 08:53:15;;;;;;;;;;;10.10;99.90;;;;;;5066364;28;20427;-57
2021/12/13 08:55:43;;;;;;;;;;;10.10;99.90;;;;;;5073749;28;19922;-55
2021/12/13 08:58:17;;;;;;;;;;;10.10;99.90;;;;;;5071775;28;19911;-60
2021/12/13 09:01:00;;;;;;;;;;;10.10;99.90;;;;;;5071794;28;20269;-60
2021/12/13 09:03:37;;;;;;;;;;;10.20;99.90;;;;;;5069216;28;19916;-60
2021/12/13 09:06:24;;;;;;;;;;;10.30;99.90;;;;;;5069986;28;20536;-55
2021/12/13 09:09:09;;;;;;;;;;;10.30;99.90;;;;;;5069721;28;19953;-53
2021/12/13 09:11:43;;;;;;;;;;;10.30;99.90;;;;;;5067994;28;19908;-54
2021/12/13 09:14:10;;;;;;;;;;;10.30;99.90;;;;;;5065787;28;19904;-55
2021/12/13 09:17:06;;;;;;;;;;;10.30;99.90;;;;;;5065757;28;19911;-55
2021/12/13 09:19:47;;;;;;;;;;;10.30;99.90;;;;;;5083312;28;20461;-56
2021/12/13 09:22:32;;;;;;;;;;;10.30;99.90;;;;;;5067212;28;19912;-55
2021/12/13 09:25:07;;;;;;;;;;;10.30;99.90;;;;;;5068399;28;19912;-55
2021/12/13 09:27:41;;;;;;;;;;;10.30;99.90;;;;;;5067887;28;19915;-56
2021/12/13 09:30:14;;;;;;;;;;;10.30;99.90;;;;;;5080567;28;20105;-54
2021/12/13 09:32:48;;;;;;;;;;;10.30;99.90;;;;;;5080547;28;19976;-54
2021/12/13 09:35:16;;;;;;;;;;;10.30;99.90;;;;;;5082436;28;20284;-56
2021/12/13 09:37:41;;;;;;;;;;;10.30;99.90;;;;;;5065310;28;19919;-54
2021/12/13 09:40:07;;;;;;;;;;;10.40;99.90;;;;;;5064025;28;19905;-55
2021/12/13 09:42:43;;;;;;;;;;;10.30;99.90;;;;;;5063561;28;19904;-53
2021/12/13 09:45:11;;;;;;;;;;;10.40;99.90;;;;;;5063619;28;19916;-55
2021/12/13 09:47:40;;;;;;;;;;;10.40;99.90;;;;;;5061816;28;19955;-54
2021/12/13 09:50:20;;;;;;;;;;;10.40;99.90;;;;;;5063040;28;19904;-56
2021/12/13 09:52:54;;;;;;;;;;;10.40;99.90;;;;;;5063861;28;19912;-56
2021/12/13 09:55:23;;;;;;;;;;;10.40;99.90;;;;;;5068659;28;20018;-56
2021/12/13 09:57:52;;;;;;;;;;;10.50;99.90;;;;;;5068541;28;19966;-54
2021/12/13 10:00:21;;;;;;;;;;;10.50;99.90;;;;;;5065190;28;19910;-55
2021/12/13 10:02:50;;;;;;;;;;;10.50;99.90;;;;;;5063711;28;19965;-52
2021/12/13 10:05:20;;;;;;;;;;;10.50;99.90;;;;;;5063019;28;19985;-55
2021/12/13 10:07:50;;;;;;;;;;;10.50;99.90;;;;;;5064320;28;20374;-56
2021/12/13 10:10:20;;;;;;;;;;;10.50;99.90;;;;;;5081324;28;20022;-55
2021/12/13 10:12:48;;;;;;;;;;;10.50;99.90;;;;;;5064068;28;19950;-57
2021/12/13 10:15:13;;;;;;;;;;;10.50;99.90;;;;;;5065472;28;19972;-57
2021/12/13 10:17:41;;;;;;;;;;;10.50;99.90;;;;;;5067718;28;20018;-55
2021/12/13 10:20:11;;;;;;;;;;;10.50;99.90;;;;;;5090369;28;20003;-54
2021/12/13 10:22:37;;;;;;;;;;;10.50;99.90;;;;;;5094228;28;19939;-52
2021/12/13 10:25:09;;;;;;;;;;;10.60;99.90;;;;;;5076141;28;19951;-54
2021/12/13 10:27:36;;;;;;;;;;;10.60;99.90;;;;;;5075797;28;19908;-56
2021/12/13 10:30:08;;;;;;;;;;;10.60;99.90;;;;;;5092507;28;19912;-56
2021/12/13 10:32:36;;;;;;;;;;;10.60;99.90;;;;;;5092709;28;19930;-56
2021/12/13 10:35:09;;;;;;;;;;;10.60;99.90;;;;;;5073365;28;20002;-54
2021/12/13 10:37:38;;;;;;;;;;;10.60;99.90;;;;;;5087345;28;19904;-54
2021/12/13 10:40:23;;;;;;;;;;;10.60;99.90;;;;;;5069946;28;19904;-54
2021/12/13 10:43:01;;;;;;;;;;;10.60;99.90;;;;;;5067616;28;19919;-55
2021/12/13 10:45:29;;;;;;;;;;;10.60;99.90;;;;;;5085594;28;20120;-54
2021/12/13 10:47:57;;;;;;;;;;;10.60;99.90;;;;;;5068548;28;20383;-53
2021/12/13 10:50:27;;;;;;;;;;;10.70;99.90;;;;;;5054544;28;19930;-55
2021/12/13 10:52:53;;;;;;;;;;;10.70;99.90;;;;;;5088142;28;19908;-57
2021/12/13 10:55:32;;;;;;;;;;;10.70;99.90;;;;;;5089866;28;19912;-55
2021/12/13 10:57:59;;;;;;;;;;;10.70;99.90;;;;;;5070308;28;19972;-55
2021/12/13 11:00:52;;;;;;;;;;;10.70;99.90;;;;;;5070164;28;19908;-54
2021/12/13 11:03:22;;;;;;;;;;;10.70;99.90;;;;;;5065432;28;19973;-54
2021/12/13 11:05:50;;;;;;;;;;;10.70;99.90;;;;;;5067252;28;19976;-56
2021/12/13 11:08:18;;;;;;;;;;;10.70;99.90;;;;;;5087008;28;19912;-57
2021/12/13 11:10:50;;;;;;;;;;;10.70;99.90;;;;;;5069935;28;19969;-53
2021/12/13 11:13:16;;;;;;;;;;;10.80;99.90;;;;;;5069744;28;20110;-56
2021/12/13 11:15:45;;;;;;;;;;;10.80;99.90;;;;;;5070273;28;19916;-56
2021/12/13 11:18:14;;;;;;;;;;;10.80;99.90;;;;;;5087841;28;19922;-56
2021/12/13 11:20:45;;;;;;;;;;;10.80;99.90;;;;;;5070449;28;19909;-55
2021/12/13 11:23:14;;;;;;;;;;;11.00;99.90;;;;;;5070403;28;19924;-54
2021/12/13 11:25:42;;;;;;;;;;;11.00;99.90;;;;;;5090838;28;20022;-52
2021/12/13 11:28:10;;;;;;;10.40;7.47;;;11.10;99.90;;;;;;5069525;28;20436;-54
2021/12/13 11:30:39;;;;;;;8.67;6.37;;;11.20;99.90;;;;;;5069596;28;20164;-51
2021/12/13 11:33:39;;;;;;;10.40;6.87;;;11.10;99.90;;;;;;5070373;28;20201;-55
2021/12/13 11:36:42;;;;;;;7.50;5.97;;;11.10;99.90;;;;;;5069420;28;20255;-53
2021/12/13 11:39:40;;;;;;;8.97;6.43;;;11.00;99.90;;;;;;5069225;28;20525;-57
2021/12/13 11:42:31;;;;;;;13.30;6.67;;;11.00;99.90;;;;;;5043367;28;20183;-56
2021/12/13 11:45:36;;;;;;;12.53;6.80;;;11.00;99.90;;;;;;5068463;28;20639;-57
2021/12/13 11:48:20;;;;;;;12.37;7.23;;;10.90;99.90;;;;;;5045799;28;20230;-55
2021/12/13 11:51:29;;;;;;;11.03;7.90;;;10.90;99.90;;;;;;5045055;28;20164;-55
2021/12/13 11:54:20;;;;;;;13.27;7.50;;;10.90;99.90;;;;;;5044818;28;20197;-54
2021/12/13 11:57:30;;;;;;;11.93;7.90;;;10.90;99.90;;;;;;5045443;28;20161;-55
2021/12/13 12:00:24;;;;;;;16.33;8.53;;;10.90;99.90;;;;;;5045034;28;20521;-55
2021/12/13 12:03:30;;;;;;;13.10;8.80;;;10.90;99.90;;;;;;5063511;28;20180;-56
2021/12/13 12:06:48;;;;;;;12.90;8.17;;;10.80;99.90;;;;;;5047823;28;20182;-54
2021/12/13 12:09:52;;;;;;;13.03;8.50;;;10.80;99.90;;;;;;5049573;28;20704;-57
2021/12/13 12:13:09;;;;;;;19.90;9.80;;;10.80;99.90;;;;;;5045871;28;20179;-57
2021/12/13 12:15:39;;;;;;;14.63;9.23;;;10.80;99.90;;;;;;5059338;28;20241;-56
2021/12/13 12:18:10;;;;;;;14.60;9.27;;;10.80;99.90;;;;;;5042585;28;20176;-56
2021/12/13 12:20:45;;;;;;;16.50;10.57;;;10.80;99.90;;;;;;5044080;28;20179;-53
2021/12/13 12:23:28;;;;;;;12.33;9.60;;;10.80;99.90;;;;;;5045037;28;20179;-55
2021/12/13 12:25:58;;;;;;;18.13;9.97;;;10.80;99.90;;;;;;5046432;28;20541;-56
2021/12/13 12:28:27;;;;;;;15.60;9.83;;;10.80;99.90;;;;;;5046779;28;20712;-55
2021/12/13 12:30:58;;;;;;;15.53;10.13;;;10.80;99.90;;;;;;5061904;28;20161;-56
2021/12/13 12:33:31;;;;;;;17.80;8.70;;;10.80;99.90;;;;;;5064120;28;20157;-54
2021/12/13 12:36:03;;;;;;;13.40;9.33;;;10.80;99.90;;;;;;5047476;28;20464;-56
2021/12/13 12:39:07;;;;;;;15.73;9.37;;;10.80;99.90;;;;;;5065359;28;20659;-57
2021/12/13 12:42:14;;;;;;;13.20;8.60;;;10.80;99.90;;;;;;5049873;28;20169;-57
2021/12/13 12:45:02;;;;;;;12.23;8.67;;;10.80;99.90;;;;;;4986031;28;20290;-54
2021/12/13 12:47:37;;;;;;;12.40;8.60;;;10.80;99.90;;;;;;5065294;28;20565;-53
2021/12/13 12:50:22;;;;;;;16.37;10.43;;;10.80;99.90;;;;;;5069380;28;20221;-55
2021/12/13 12:52:57;;;;;;;14.33;9.47;;;10.80;99.90;;;;;;5089365;28;20202;-58
2021/12/13 12:55:26;;;;;;;16.20;9.50;;;10.80;99.90;;;;;;5066343;28;20169;-54
2021/12/13 12:57:51;;;;;;;17.90;9.40;;;10.80;99.90;;;;;;5063646;28;20164;-56
2021/12/13 13:00:26;;;;;;;16.93;9.97;;;10.80;99.90;;;;;;5061038;28;20222;-55
2021/12/13 13:02:52;;;;;;;15.70;9.47;;;10.80;99.90;;;;;;5081210;28;20270;-57
2021/12/13 13:05:21;;;;;;;16.73;9.83;;;10.80;99.90;;;;;;5062306;28;20636;-56
2021/12/13 13:07:51;;;;;;;11.30;8.57;;;10.80;99.90;;;;;;5060629;28;20220;-51
2021/12/13 13:11:26;;;;;;;14.67;10.00;;;10.80;99.90;;;;;;5076812;28;20169;-55
2021/12/13 13:13:12;;;;;;;18.87;9.57;;;10.70;99.90;;;;;;5060935;28;20616;-54
2021/12/13 13:15:44;;;;;;;15.40;10.17;;;10.70;99.90;;;;;;5058415;28;20164;-55
2021/12/13 13:18:24;;;;;;;16.43;10.00;;;10.70;99.90;;;;;;5056472;28;20176;-56
2021/12/13 13:20:57;;;;;;;15.67;9.87;;;10.70;99.90;;;;;;5057370;28;20337;-56
2021/12/13 13:23:25;;;;;;;12.80;9.30;;;10.70;99.90;;;;;;5057326;28;20271;-54
2021/12/13 13:25:55;;;;;;;15.90;9.17;;;10.70;99.90;;;;;;5058563;28;20172;-55
2021/12/13 13:28:27;;;;;;;15.13;10.30;;;10.70;99.90;;;;;;5079604;28;20196;-53
2021/12/13 13:31:20;;;;;;;13.93;9.57;;;10.70;99.90;;;;;;5061000;28;20229;-55
2021/12/13 13:34:09;;;;;;;13.07;9.50;;;10.70;99.90;;;;;;5054883;28;20245;-55
2021/12/13 13:36:34;;;;;;;;;;;10.70;99.90;;;;;;5087610;28;20019;-52
2021/12/13 13:39:14;;;;;;;;;;;10.70;99.90;;;;;;5069789;28;19973;-55
2021/12/13 13:41:42;;;;;;;;;;;10.70;99.90;;;;;;5068402;28;19904;-55
2021/12/13 13:44:10;;;;;;;;;;;10.70;99.90;;;;;;5068543;28;19912;-55
2021/12/13 13:46:38;;;;;;;;;;;10.60;99.90;;;;;;5071545;28;19919;-53
2021/12/13 13:49:04;;;;;;;;;;;10.60;99.90;;;;;;5071131;28;19963;-56
2021/12/13 13:51:33;;;;;;;;;;;10.60;99.90;;;;;;5070892;28;19908;-54
2021/12/13 13:53:59;;;;;;;;;;;10.60;99.90;;;;;;5069748;28;20173;-53
2021/12/13 13:56:31;;;;;;;;;;;10.60;99.90;;;;;;5088458;28;20041;-53
2021/12/13 13:59:07;;;;;;;;;;;10.60;99.90;;;;;;5072327;28;19919;-55
2021/12/13 14:01:45;;;;;;;;;;;10.60;99.90;;;;;;5072537;28;19926;-53
2021/12/13 14:04:32;;;;;;;;;;;10.60;99.90;;;;;;5071902;28;19911;-54
2021/12/13 14:07:21;;;;;;;;;;;10.60;99.90;;;;;;5090879;28;19911;-56
2021/12/13 14:09:52;;;;;;;;;;;10.60;99.90;;;;;;5090411;28;19908;-55
2021/12/13 14:12:31;;;;;;;;;;;10.60;99.90;;;;;;5072297;28;19904;-53
2021/12/13 14:15:17;;;;;;;;;;;10.60;99.90;;;;;;5088325;28;19904;-54
2021/12/13 14:17:46;;;;;;;;;;;10.60;99.90;;;;;;5070741;28;20222;-53
2021/12/13 14:20:21;;;;;;;;;;;10.60;99.90;;;;;;5068910;28;19914;-56
2021/12/13 14:22:49;;;;;;;;;;;10.60;99.90;;;;;;5066814;28;20403;-53
2021/12/13 14:25:27;;;;;;;;;;;10.50;99.90;;;;;;5066734;28;19903;-56
2021/12/13 14:27:53;;;;;;;;;;;10.60;99.90;;;;;;5065506;28;19919;-54
2021/12/13 14:30:27;;;;;;;;;;;10.60;99.90;;;;;;5064261;28;20349;-52
2021/12/13 14:32:53;;;;;;;;;;;10.60;99.90;;;;;;5067763;28;19923;-53
2021/12/13 14:35:26;;;;;;;;;;;10.60;99.90;;;;;;5068628;28;19912;-53
2021/12/13 14:38:05;;;;;;;;;;;10.60;99.90;;;;;;5070660;28;19919;-52
2021/12/13 14:40:48;;;;;;;;;;;10.60;99.90;;;;;;5071897;28;20061;-51
2021/12/13 14:43:23;;;;;;;;;;;10.60;99.90;;;;;;5071026;28;20408;-55